sensor_id;sensor_type;location;lat;lon;timestamp;P1;durP1;ratioP1;P2;durP2;ratioP2
13408;SDS011;6775;49.574;11.170;2023-04-03T00:00:57;1.93;;;1.20;;
13408;SDS011;6775;49.574;11.170;2023-04-03T00:03:25;1.83;;;1.40;;
13408;SDS011;6775;49.574;11.170;2023-04-03T00:05:53;2.80;;;1.50;;
13408;SDS011;6775;49.574;11.170;2023-04-03T00:08:21;1.40;;;1.30;;
13408;SDS011;6775;49.574;11.170;2023-04-03T00:10:50;3.10;;;1.43;;
13408;SDS011;6775;49.574;11.170;2023-04-03T00:13:18;1.57;;;1.47;;
13408;SDS011;6775;49.574;11.170;2023-04-03T00:15:46;1.57;;;1.47;;
13408;SDS011;6775;49.574;11.170;2023-04-03T00:18:14;2.30;;;1.50;;
13408;SDS011;6775;49.574;11.170;2023-04-03T00:20:42;2.10;;;1.50;;
13408;SDS011;6775;49.574;11.170;2023-04-03T00:23:09;1.37;;;1.27;;
13408;SDS011;6775;49.574;11.170;2023-04-03T00:25:37;1.43;;;1.33;;
13408;SDS011;6775;49.574;11.170;2023-04-03T00:28:07;1.60;;;1.50;;
13408;SDS011;6775;49.574;11.170;2023-04-03T00:30:35;1.40;;;1.30;;
13408;SDS011;6775;49.574;11.170;2023-04-03T00:33:04;1.30;;;1.20;;
13408;SDS011;6775;49.574;11.170;2023-04-03T00:35:33;1.50;;;1.30;;
13408;SDS011;6775;49.574;11.170;2023-04-03T00:38:02;1.60;;;1.27;;
13408;SDS011;6775;49.574;11.170;2023-04-03T00:40:33;1.30;;;1.20;;
13408;SDS011;6775;49.574;11.170;2023-04-03T00:43:05;1.60;;;1.40;;
13408;SDS011;6775;49.574;11.170;2023-04-03T00:45:41;1.60;;;1.47;;
13408;SDS011;6775;49.574;11.170;2023-04-03T00:48:11;1.30;;;1.20;;
13408;SDS011;6775;49.574;11.170;2023-04-03T00:50:42;1.90;;;1.70;;
13408;SDS011;6775;49.574;11.170;2023-04-03T00:53:11;2.60;;;1.60;;
13408;SDS011;6775;49.574;11.170;2023-04-03T00:55:43;1.60;;;1.50;;
13408;SDS011;6775;49.574;11.170;2023-04-03T00:58:14;1.20;;;1.03;;
13408;SDS011;6775;49.574;11.170;2023-04-03T01:00:46;1.67;;;1.47;;
13408;SDS011;6775;49.574;11.170;2023-04-03T01:03:23;1.37;;;1.27;;
13408;SDS011;6775;49.574;11.170;2023-04-03T01:05:51;1.53;;;1.20;;
13408;SDS011;6775;49.574;11.170;2023-04-03T01:08:19;1.50;;;1.40;;
13408;SDS011;6775;49.574;11.170;2023-04-03T01:10:47;1.30;;;1.20;;
13408;SDS011;6775;49.574;11.170;2023-04-03T01:13:24;1.67;;;1.30;;
13408;SDS011;6775;49.574;11.170;2023-04-03T01:15:53;1.87;;;1.37;;
13408;SDS011;6775;49.574;11.170;2023-04-03T01:18:22;1.40;;;1.30;;
13408;SDS011;6775;49.574;11.170;2023-04-03T01:24:10;1.53;;;1.43;;
13408;SDS011;6775;49.574;11.170;2023-04-03T01:26:51;1.77;;;1.57;;
13408;SDS011;6775;49.574;11.170;2023-04-03T01:29:20;1.87;;;1.57;;
13408;SDS011;6775;49.574;11.170;2023-04-03T01:31:51;3.20;;;1.57;;
13408;SDS011;6775;49.574;11.170;2023-04-03T01:34:20;1.73;;;1.60;;
13408;SDS011;6775;49.574;11.170;2023-04-03T01:36:48;1.23;;;1.10;;
13408;SDS011;6775;49.574;11.170;2023-04-03T01:39:16;2.33;;;1.53;;
13408;SDS011;6775;49.574;11.170;2023-04-03T01:41:44;1.53;;;1.43;;
13408;SDS011;6775;49.574;11.170;2023-04-03T01:44:12;1.40;;;1.30;;
13408;SDS011;6775;49.574;11.170;2023-04-03T01:46:41;1.73;;;1.40;;
13408;SDS011;6775;49.574;11.170;2023-04-03T01:49:10;2.40;;;1.27;;
13408;SDS011;6775;49.574;11.170;2023-04-03T01:51:38;2.30;;;1.80;;
13408;SDS011;6775;49.574;11.170;2023-04-03T01:54:05;1.80;;;1.43;;
13408;SDS011;6775;49.574;11.170;2023-04-03T01:56:33;2.50;;;1.83;;
13408;SDS011;6775;49.574;11.170;2023-04-03T01:59:01;2.63;;;1.60;;
13408;SDS011;6775;49.574;11.170;2023-04-03T02:01:29;3.50;;;1.53;;
13408;SDS011;6775;49.574;11.170;2023-04-03T02:03:57;1.77;;;1.37;;
13408;SDS011;6775;49.574;11.170;2023-04-03T02:06:26;2.00;;;1.40;;
13408;SDS011;6775;49.574;11.170;2023-04-03T02:08:54;1.80;;;1.50;;
13408;SDS011;6775;49.574;11.170;2023-04-03T02:11:22;3.00;;;1.30;;
13408;SDS011;6775;49.574;11.170;2023-04-03T02:13:49;1.77;;;1.30;;
13408;SDS011;6775;49.574;11.170;2023-04-03T02:16:17;2.60;;;1.13;;
13408;SDS011;6775;49.574;11.170;2023-04-03T02:18:45;2.47;;;1.30;;
13408;SDS011;6775;49.574;11.170;2023-04-03T02:21:13;1.87;;;1.20;;
13408;SDS011;6775;49.574;11.170;2023-04-03T02:23:42;1.60;;;1.50;;
13408;SDS011;6775;49.574;11.170;2023-04-03T02:26:10;2.60;;;1.27;;
13408;SDS011;6775;49.574;11.170;2023-04-03T02:28:40;1.80;;;1.30;;
13408;SDS011;6775;49.574;11.170;2023-04-03T02:31:08;2.53;;;1.33;;
13408;SDS011;6775;49.574;11.170;2023-04-03T02:33:36;3.93;;;1.73;;
13408;SDS011;6775;49.574;11.170;2023-04-03T02:36:05;1.60;;;1.40;;
13408;SDS011;6775;49.574;11.170;2023-04-03T02:38:34;1.67;;;1.37;;
13408;SDS011;6775;49.574;11.170;2023-04-03T02:41:04;1.63;;;1.43;;
13408;SDS011;6775;49.574;11.170;2023-04-03T02:43:33;2.53;;;1.80;;
13408;SDS011;6775;49.574;11.170;2023-04-03T02:46:01;4.27;;;1.87;;
13408;SDS011;6775;49.574;11.170;2023-04-03T02:48:29;2.33;;;1.63;;
13408;SDS011;6775;49.574;11.170;2023-04-03T02:50:56;3.10;;;1.70;;
13408;SDS011;6775;49.574;11.170;2023-04-03T02:53:24;2.07;;;1.77;;
13408;SDS011;6775;49.574;11.170;2023-04-03T02:55:52;1.50;;;1.40;;
13408;SDS011;6775;49.574;11.170;2023-04-03T02:58:21;2.67;;;1.50;;
13408;SDS011;6775;49.574;11.170;2023-04-03T03:00:49;2.27;;;1.60;;
13408;SDS011;6775;49.574;11.170;2023-04-03T03:03:17;1.70;;;1.30;;
13408;SDS011;6775;49.574;11.170;2023-04-03T03:05:45;3.33;;;2.00;;
13408;SDS011;6775;49.574;11.170;2023-04-03T03:08:14;3.17;;;1.60;;
13408;SDS011;6775;49.574;11.170;2023-04-03T03:10:42;3.20;;;2.10;;
13408;SDS011;6775;49.574;11.170;2023-04-03T03:13:09;2.40;;;1.80;;
13408;SDS011;6775;49.574;11.170;2023-04-03T03:15:38;2.50;;;1.63;;
13408;SDS011;6775;49.574;11.170;2023-04-03T03:18:06;1.60;;;1.50;;
13408;SDS011;6775;49.574;11.170;2023-04-03T03:20:34;3.57;;;1.50;;
13408;SDS011;6775;49.574;11.170;2023-04-03T03:23:02;2.07;;;1.50;;
13408;SDS011;6775;49.574;11.170;2023-04-03T03:25:30;2.33;;;1.57;;
13408;SDS011;6775;49.574;11.170;2023-04-03T03:27:58;1.50;;;1.40;;
13408;SDS011;6775;49.574;11.170;2023-04-03T03:30:26;1.80;;;1.40;;
13408;SDS011;6775;49.574;11.170;2023-04-03T03:32:55;1.80;;;1.70;;
13408;SDS011;6775;49.574;11.170;2023-04-03T03:35:23;2.83;;;1.87;;
13408;SDS011;6775;49.574;11.170;2023-04-03T03:37:50;1.77;;;1.67;;
13408;SDS011;6775;49.574;11.170;2023-04-03T03:40:18;2.30;;;1.50;;
13408;SDS011;6775;49.574;11.170;2023-04-03T03:42:46;2.63;;;1.60;;
13408;SDS011;6775;49.574;11.170;2023-04-03T03:45:14;2.67;;;1.57;;
13408;SDS011;6775;49.574;11.170;2023-04-03T03:47:42;2.27;;;1.50;;
13408;SDS011;6775;49.574;11.170;2023-04-03T03:50:11;3.17;;;1.90;;
13408;SDS011;6775;49.574;11.170;2023-04-03T03:52:39;3.07;;;1.73;;
13408;SDS011;6775;49.574;11.170;2023-04-03T03:55:07;2.43;;;2.17;;
13408;SDS011;6775;49.574;11.170;2023-04-03T03:57:35;3.03;;;1.80;;
13408;SDS011;6775;49.574;11.170;2023-04-03T04:00:03;2.43;;;1.80;;
13408;SDS011;6775;49.574;11.170;2023-04-03T04:02:33;2.03;;;1.63;;
13408;SDS011;6775;49.574;11.170;2023-04-03T04:05:01;2.73;;;1.60;;
13408;SDS011;6775;49.574;11.170;2023-04-03T04:07:30;2.17;;;1.90;;
13408;SDS011;6775;49.574;11.170;2023-04-03T04:09:58;2.00;;;1.50;;
13408;SDS011;6775;49.574;11.170;2023-04-03T04:12:26;2.53;;;1.80;;
13408;SDS011;6775;49.574;11.170;2023-04-03T04:14:54;2.70;;;1.90;;
13408;SDS011;6775;49.574;11.170;2023-04-03T04:17:22;2.93;;;1.97;;
13408;SDS011;6775;49.574;11.170;2023-04-03T04:19:50;2.03;;;1.83;;
13408;SDS011;6775;49.574;11.170;2023-04-03T04:22:17;3.27;;;1.90;;
13408;SDS011;6775;49.574;11.170;2023-04-03T04:24:46;1.67;;;1.57;;
13408;SDS011;6775;49.574;11.170;2023-04-03T04:27:14;2.23;;;2.03;;
13408;SDS011;6775;49.574;11.170;2023-04-03T04:29:42;2.27;;;1.90;;
13408;SDS011;6775;49.574;11.170;2023-04-03T04:32:10;2.60;;;1.77;;
13408;SDS011;6775;49.574;11.170;2023-04-03T04:34:38;2.60;;;2.00;;
13408;SDS011;6775;49.574;11.170;2023-04-03T04:37:06;2.63;;;2.10;;
13408;SDS011;6775;49.574;11.170;2023-04-03T04:39:34;2.60;;;1.90;;
13408;SDS011;6775;49.574;11.170;2023-04-03T04:42:03;2.30;;;2.00;;
13408;SDS011;6775;49.574;11.170;2023-04-03T04:44:33;3.57;;;1.63;;
13408;SDS011;6775;49.574;11.170;2023-04-03T04:47:00;3.13;;;2.10;;
13408;SDS011;6775;49.574;11.170;2023-04-03T04:49:28;1.90;;;1.77;;
13408;SDS011;6775;49.574;11.170;2023-04-03T04:51:56;3.87;;;1.90;;
13408;SDS011;6775;49.574;11.170;2023-04-03T04:54:24;1.87;;;1.67;;
13408;SDS011;6775;49.574;11.170;2023-04-03T04:56:52;3.20;;;1.70;;
13408;SDS011;6775;49.574;11.170;2023-04-03T04:59:21;2.27;;;1.63;;
13408;SDS011;6775;49.574;11.170;2023-04-03T05:01:49;3.00;;;1.80;;
13408;SDS011;6775;49.574;11.170;2023-04-03T05:04:17;2.73;;;2.00;;
13408;SDS011;6775;49.574;11.170;2023-04-03T05:06:45;4.07;;;2.00;;
13408;SDS011;6775;49.574;11.170;2023-04-03T05:09:13;3.23;;;2.40;;
13408;SDS011;6775;49.574;11.170;2023-04-03T05:11:40;4.93;;;2.10;;
13408;SDS011;6775;49.574;11.170;2023-04-03T05:14:09;3.37;;;1.60;;
13408;SDS011;6775;49.574;11.170;2023-04-03T05:16:38;1.53;;;1.43;;
13408;SDS011;6775;49.574;11.170;2023-04-03T05:19:06;2.83;;;1.70;;
13408;SDS011;6775;49.574;11.170;2023-04-03T05:21:33;2.67;;;1.70;;
13408;SDS011;6775;49.574;11.170;2023-04-03T05:24:01;2.40;;;1.70;;
13408;SDS011;6775;49.574;11.170;2023-04-03T05:26:29;2.90;;;2.13;;
13408;SDS011;6775;49.574;11.170;2023-04-03T05:28:58;4.80;;;1.80;;
13408;SDS011;6775;49.574;11.170;2023-04-03T05:31:26;4.47;;;1.70;;
13408;SDS011;6775;49.574;11.170;2023-04-03T05:33:56;3.13;;;1.70;;
13408;SDS011;6775;49.574;11.170;2023-04-03T05:36:25;1.70;;;1.60;;
13408;SDS011;6775;49.574;11.170;2023-04-03T05:38:53;2.27;;;1.63;;
13408;SDS011;6775;49.574;11.170;2023-04-03T05:41:22;3.00;;;1.70;;
13408;SDS011;6775;49.574;11.170;2023-04-03T05:43:50;3.07;;;1.70;;
13408;SDS011;6775;49.574;11.170;2023-04-03T05:46:18;1.97;;;1.50;;
13408;SDS011;6775;49.574;11.170;2023-04-03T05:48:48;3.20;;;1.80;;
13408;SDS011;6775;49.574;11.170;2023-04-03T05:51:18;2.80;;;1.83;;
13408;SDS011;6775;49.574;11.170;2023-04-03T05:53:48;2.33;;;1.57;;
13408;SDS011;6775;49.574;11.170;2023-04-03T05:56:22;3.37;;;1.40;;
13408;SDS011;6775;49.574;11.170;2023-04-03T05:58:50;1.97;;;1.40;;
13408;SDS011;6775;49.574;11.170;2023-04-03T06:01:17;3.57;;;2.10;;
13408;SDS011;6775;49.574;11.170;2023-04-03T06:03:45;1.97;;;1.80;;
13408;SDS011;6775;49.574;11.170;2023-04-03T06:06:13;8.23;;;2.20;;
13408;SDS011;6775;49.574;11.170;2023-04-03T06:08:43;3.43;;;2.07;;
13408;SDS011;6775;49.574;11.170;2023-04-03T06:11:12;4.03;;;1.90;;
13408;SDS011;6775;49.574;11.170;2023-04-03T06:13:40;2.33;;;1.90;;
13408;SDS011;6775;49.574;11.170;2023-04-03T06:16:08;6.00;;;2.20;;
13408;SDS011;6775;49.574;11.170;2023-04-03T06:18:36;5.50;;;2.30;;
13408;SDS011;6775;49.574;11.170;2023-04-03T06:21:04;3.50;;;1.73;;
13408;SDS011;6775;49.574;11.170;2023-04-03T06:23:33;3.73;;;1.70;;
13408;SDS011;6775;49.574;11.170;2023-04-03T06:26:03;2.53;;;1.67;;
13408;SDS011;6775;49.574;11.170;2023-04-03T06:28:31;3.63;;;2.30;;
13408;SDS011;6775;49.574;11.170;2023-04-03T06:30:59;5.17;;;2.43;;
13408;SDS011;6775;49.574;11.170;2023-04-03T06:33:27;4.30;;;2.00;;
13408;SDS011;6775;49.574;11.170;2023-04-03T06:35:55;3.07;;;2.50;;
13408;SDS011;6775;49.574;11.170;2023-04-03T06:38:24;2.63;;;2.30;;
13408;SDS011;6775;49.574;11.170;2023-04-03T06:40:52;2.57;;;2.10;;
13408;SDS011;6775;49.574;11.170;2023-04-03T06:43:21;4.43;;;2.17;;
13408;SDS011;6775;49.574;11.170;2023-04-03T06:45:49;2.10;;;1.90;;
13408;SDS011;6775;49.574;11.170;2023-04-03T06:48:18;7.43;;;2.60;;
13408;SDS011;6775;49.574;11.170;2023-04-03T06:50:45;4.07;;;2.53;;
13408;SDS011;6775;49.574;11.170;2023-04-03T06:53:13;3.00;;;2.20;;
13408;SDS011;6775;49.574;11.170;2023-04-03T06:55:41;4.17;;;2.40;;
13408;SDS011;6775;49.574;11.170;2023-04-03T06:58:10;4.17;;;2.27;;
13408;SDS011;6775;49.574;11.170;2023-04-03T07:00:39;6.23;;;2.60;;
13408;SDS011;6775;49.574;11.170;2023-04-03T07:03:07;3.17;;;2.47;;
13408;SDS011;6775;49.574;11.170;2023-04-03T07:05:34;4.23;;;2.17;;
13408;SDS011;6775;49.574;11.170;2023-04-03T07:08:03;4.00;;;2.40;;
13408;SDS011;6775;49.574;11.170;2023-04-03T07:10:31;3.23;;;2.30;;
13408;SDS011;6775;49.574;11.170;2023-04-03T07:12:59;3.57;;;2.00;;
13408;SDS011;6775;49.574;11.170;2023-04-03T07:15:27;2.63;;;2.07;;
13408;SDS011;6775;49.574;11.170;2023-04-03T07:17:57;3.87;;;2.53;;
13408;SDS011;6775;49.574;11.170;2023-04-03T07:20:25;4.03;;;2.40;;
13408;SDS011;6775;49.574;11.170;2023-04-03T07:22:52;2.73;;;2.17;;
13408;SDS011;6775;49.574;11.170;2023-04-03T07:25:20;2.93;;;2.43;;
13408;SDS011;6775;49.574;11.170;2023-04-03T07:27:48;3.40;;;2.10;;
13408;SDS011;6775;49.574;11.170;2023-04-03T07:30:16;3.63;;;2.27;;
13408;SDS011;6775;49.574;11.170;2023-04-03T07:32:44;3.03;;;2.17;;
13408;SDS011;6775;49.574;11.170;2023-04-03T07:35:14;3.93;;;2.73;;
13408;SDS011;6775;49.574;11.170;2023-04-03T07:37:43;3.87;;;2.17;;
13408;SDS011;6775;49.574;11.170;2023-04-03T07:40:12;3.10;;;1.87;;
13408;SDS011;6775;49.574;11.170;2023-04-03T07:42:40;3.03;;;2.30;;
13408;SDS011;6775;49.574;11.170;2023-04-03T07:45:08;2.23;;;1.90;;
13408;SDS011;6775;49.574;11.170;2023-04-03T07:47:37;2.37;;;1.97;;
13408;SDS011;6775;49.574;11.170;2023-04-03T07:50:06;4.10;;;1.97;;
13408;SDS011;6775;49.574;11.170;2023-04-03T07:52:36;2.20;;;1.90;;
13408;SDS011;6775;49.574;11.170;2023-04-03T07:55:04;3.33;;;1.93;;
13408;SDS011;6775;49.574;11.170;2023-04-03T07:57:32;2.77;;;2.13;;
13408;SDS011;6775;49.574;11.170;2023-04-03T08:00:00;2.00;;;1.80;;
13408;SDS011;6775;49.574;11.170;2023-04-03T08:02:28;2.30;;;2.00;;
13408;SDS011;6775;49.574;11.170;2023-04-03T08:04:58;2.17;;;1.77;;
13408;SDS011;6775;49.574;11.170;2023-04-03T08:07:26;3.13;;;1.93;;
13408;SDS011;6775;49.574;11.170;2023-04-03T08:09:55;3.50;;;1.80;;
13408;SDS011;6775;49.574;11.170;2023-04-03T08:12:23;3.80;;;2.10;;
13408;SDS011;6775;49.574;11.170;2023-04-03T08:14:50;2.03;;;1.80;;
13408;SDS011;6775;49.574;11.170;2023-04-03T08:17:18;3.50;;;1.93;;
13408;SDS011;6775;49.574;11.170;2023-04-03T08:19:46;5.37;;;1.80;;
13408;SDS011;6775;49.574;11.170;2023-04-03T08:22:14;2.23;;;1.67;;
13408;SDS011;6775;49.574;11.170;2023-04-03T08:24:42;2.53;;;1.80;;
13408;SDS011;6775;49.574;11.170;2023-04-03T08:27:25;3.60;;;1.73;;
13408;SDS011;6775;49.574;11.170;2023-04-03T08:29:53;3.60;;;2.00;;
13408;SDS011;6775;49.574;11.170;2023-04-03T08:32:21;2.40;;;1.67;;
13408;SDS011;6775;49.574;11.170;2023-04-03T08:34:49;1.83;;;1.30;;
13408;SDS011;6775;49.574;11.170;2023-04-03T08:37:17;3.77;;;1.80;;
13408;SDS011;6775;49.574;11.170;2023-04-03T08:39:45;2.33;;;1.50;;
13408;SDS011;6775;49.574;11.170;2023-04-03T08:42:15;3.60;;;1.80;;
13408;SDS011;6775;49.574;11.170;2023-04-03T08:44:50;2.87;;;1.77;;
13408;SDS011;6775;49.574;11.170;2023-04-03T08:47:26;4.13;;;1.73;;
13408;SDS011;6775;49.574;11.170;2023-04-03T08:50:04;5.20;;;2.00;;
13408;SDS011;6775;49.574;11.170;2023-04-03T08:52:37;2.83;;;1.90;;
13408;SDS011;6775;49.574;11.170;2023-04-03T08:55:13;2.67;;;1.60;;
13408;SDS011;6775;49.574;11.170;2023-04-03T08:57:47;1.83;;;1.40;;
13408;SDS011;6775;49.574;11.170;2023-04-03T09:00:20;2.80;;;1.40;;
13408;SDS011;6775;49.574;11.170;2023-04-03T09:02:50;2.50;;;1.70;;
13408;SDS011;6775;49.574;11.170;2023-04-03T09:05:21;1.83;;;1.67;;
13408;SDS011;6775;49.574;11.170;2023-04-03T09:07:58;1.80;;;1.20;;
13408;SDS011;6775;49.574;11.170;2023-04-03T09:10:30;1.87;;;1.20;;
13408;SDS011;6775;49.574;11.170;2023-04-03T09:13:03;1.60;;;1.10;;
13408;SDS011;6775;49.574;11.170;2023-04-03T09:15:39;2.13;;;1.50;;
13408;SDS011;6775;49.574;11.170;2023-04-03T09:18:11;2.70;;;1.50;;
13408;SDS011;6775;49.574;11.170;2023-04-03T09:20:45;2.50;;;1.47;;
13408;SDS011;6775;49.574;11.170;2023-04-03T09:23:18;3.60;;;1.50;;
13408;SDS011;6775;49.574;11.170;2023-04-03T09:25:56;3.60;;;1.50;;
13408;SDS011;6775;49.574;11.170;2023-04-03T09:28:29;2.97;;;1.77;;
13408;SDS011;6775;49.574;11.170;2023-04-03T09:31:21;2.63;;;1.30;;
13408;SDS011;6775;49.574;11.170;2023-04-03T09:33:51;3.33;;;1.40;;
13408;SDS011;6775;49.574;11.170;2023-04-03T09:36:39;2.23;;;1.30;;
13408;SDS011;6775;49.574;11.170;2023-04-03T09:39:10;2.97;;;1.50;;
13408;SDS011;6775;49.574;11.170;2023-04-03T09:41:40;1.73;;;1.20;;
13408;SDS011;6775;49.574;11.170;2023-04-03T09:44:20;2.30;;;1.57;;
13408;SDS011;6775;49.574;11.170;2023-04-03T09:46:50;1.37;;;1.23;;
13408;SDS011;6775;49.574;11.170;2023-04-03T09:49:18;1.50;;;1.40;;
13408;SDS011;6775;49.574;11.170;2023-04-03T09:51:47;2.17;;;1.50;;
13408;SDS011;6775;49.574;11.170;2023-04-03T09:54:30;2.07;;;1.40;;
13408;SDS011;6775;49.574;11.170;2023-04-03T09:57:04;2.30;;;1.43;;
13408;SDS011;6775;49.574;11.170;2023-04-03T09:59:35;1.57;;;1.33;;
13408;SDS011;6775;49.574;11.170;2023-04-03T10:02:16;1.80;;;1.03;;
13408;SDS011;6775;49.574;11.170;2023-04-03T10:04:52;6.17;;;1.60;;
13408;SDS011;6775;49.574;11.170;2023-04-03T10:07:35;3.13;;;1.50;;
13408;SDS011;6775;49.574;11.170;2023-04-03T10:10:19;1.30;;;1.20;;
13408;SDS011;6775;49.574;11.170;2023-04-03T10:12:57;1.40;;;1.30;;
13408;SDS011;6775;49.574;11.170;2023-04-03T10:15:33;2.17;;;1.33;;
13408;SDS011;6775;49.574;11.170;2023-04-03T10:18:09;1.50;;;1.27;;
13408;SDS011;6775;49.574;11.170;2023-04-03T10:20:52;1.70;;;1.37;;
13408;SDS011;6775;49.574;11.170;2023-04-03T10:23:21;3.07;;;1.43;;
13408;SDS011;6775;49.574;11.170;2023-04-03T10:25:58;2.47;;;1.37;;
13408;SDS011;6775;49.574;11.170;2023-04-03T10:28:41;2.53;;;1.67;;
13408;SDS011;6775;49.574;11.170;2023-04-03T10:31:16;1.83;;;1.20;;
13408;SDS011;6775;49.574;11.170;2023-04-03T10:33:56;1.67;;;1.37;;
13408;SDS011;6775;49.574;11.170;2023-04-03T10:36:33;1.97;;;1.50;;
13408;SDS011;6775;49.574;11.170;2023-04-03T10:39:08;1.53;;;1.13;;
13408;SDS011;6775;49.574;11.170;2023-04-03T10:41:51;2.67;;;1.37;;
13408;SDS011;6775;49.574;11.170;2023-04-03T10:44:43;2.63;;;1.57;;
13408;SDS011;6775;49.574;11.170;2023-04-03T10:47:28;2.50;;;1.30;;
13408;SDS011;6775;49.574;11.170;2023-04-03T10:50:09;1.77;;;1.10;;
13408;SDS011;6775;49.574;11.170;2023-04-03T10:52:55;2.23;;;1.30;;
13408;SDS011;6775;49.574;11.170;2023-04-03T10:55:30;2.33;;;1.23;;
13408;SDS011;6775;49.574;11.170;2023-04-03T10:58:02;1.60;;;1.20;;
13408;SDS011;6775;49.574;11.170;2023-04-03T11:00:34;2.20;;;1.33;;
13408;SDS011;6775;49.574;11.170;2023-04-03T11:03:06;2.40;;;1.53;;
13408;SDS011;6775;49.574;11.170;2023-04-03T11:05:42;2.77;;;1.20;;
13408;SDS011;6775;49.574;11.170;2023-04-03T11:08:13;1.33;;;1.10;;
13408;SDS011;6775;49.574;11.170;2023-04-03T11:10:51;1.43;;;1.33;;
13408;SDS011;6775;49.574;11.170;2023-04-03T11:13:24;3.13;;;1.43;;
13408;SDS011;6775;49.574;11.170;2023-04-03T11:15:57;2.20;;;1.17;;
13408;SDS011;6775;49.574;11.170;2023-04-03T11:18:26;2.03;;;1.20;;
13408;SDS011;6775;49.574;11.170;2023-04-03T11:21:03;2.00;;;0.97;;
13408;SDS011;6775;49.574;11.170;2023-04-03T11:23:36;2.47;;;1.40;;
13408;SDS011;6775;49.574;11.170;2023-04-03T11:26:15;2.97;;;1.43;;
13408;SDS011;6775;49.574;11.170;2023-04-03T11:28:46;2.37;;;1.43;;
13408;SDS011;6775;49.574;11.170;2023-04-03T11:31:24;1.60;;;1.40;;
13408;SDS011;6775;49.574;11.170;2023-04-03T11:34:03;2.50;;;1.40;;
13408;SDS011;6775;49.574;11.170;2023-04-03T11:36:40;2.50;;;1.30;;
13408;SDS011;6775;49.574;11.170;2023-04-03T11:39:16;1.40;;;1.10;;
13408;SDS011;6775;49.574;11.170;2023-04-03T11:41:49;2.27;;;1.10;;
13408;SDS011;6775;49.574;11.170;2023-04-03T11:44:33;1.70;;;1.20;;
13408;SDS011;6775;49.574;11.170;2023-04-03T11:47:03;1.90;;;1.40;;
13408;SDS011;6775;49.574;11.170;2023-04-03T11:49:50;1.47;;;1.20;;
13408;SDS011;6775;49.574;11.170;2023-04-03T11:58:26;2.03;;;1.37;;
13408;SDS011;6775;49.574;11.170;2023-04-03T12:01:00;1.00;;;0.90;;
13408;SDS011;6775;49.574;11.170;2023-04-03T12:03:33;2.13;;;1.43;;
13408;SDS011;6775;49.574;11.170;2023-04-03T12:06:43;2.20;;;1.23;;
13408;SDS011;6775;49.574;11.170;2023-04-03T12:09:35;1.30;;;1.20;;
13408;SDS011;6775;49.574;11.170;2023-04-03T12:12:28;2.67;;;1.00;;
13408;SDS011;6775;49.574;11.170;2023-04-03T12:15:11;2.07;;;1.40;;
13408;SDS011;6775;49.574;11.170;2023-04-03T12:21:17;1.53;;;1.07;;
13408;SDS011;6775;49.574;11.170;2023-04-03T12:23:58;1.03;;;0.90;;
13408;SDS011;6775;49.574;11.170;2023-04-03T12:26:30;2.27;;;1.20;;
13408;SDS011;6775;49.574;11.170;2023-04-03T12:29:17;1.40;;;1.03;;
13408;SDS011;6775;49.574;11.170;2023-04-03T12:31:54;1.77;;;1.40;;
13408;SDS011;6775;49.574;11.170;2023-04-03T12:34:44;2.10;;;1.00;;
13408;SDS011;6775;49.574;11.170;2023-04-03T12:37:23;1.80;;;1.43;;
13408;SDS011;6775;49.574;11.170;2023-04-03T12:40:10;1.60;;;1.37;;
13408;SDS011;6775;49.574;11.170;2023-04-03T12:42:55;2.17;;;1.20;;
13408;SDS011;6775;49.574;11.170;2023-04-03T12:45:50;1.73;;;1.03;;
13408;SDS011;6775;49.574;11.170;2023-04-03T12:48:25;2.37;;;1.30;;
13408;SDS011;6775;49.574;11.170;2023-04-03T12:50:55;1.23;;;1.10;;
13408;SDS011;6775;49.574;11.170;2023-04-03T12:53:24;1.70;;;1.20;;
13408;SDS011;6775;49.574;11.170;2023-04-03T12:55:57;2.07;;;1.40;;
13408;SDS011;6775;49.574;11.170;2023-04-03T12:58:45;2.77;;;1.20;;
13408;SDS011;6775;49.574;11.170;2023-04-03T13:01:16;1.17;;;1.07;;
13408;SDS011;6775;49.574;11.170;2023-04-03T13:03:47;1.20;;;1.07;;
13408;SDS011;6775;49.574;11.170;2023-04-03T13:06:17;1.70;;;1.20;;
13408;SDS011;6775;49.574;11.170;2023-04-03T13:08:50;3.00;;;1.40;;
13408;SDS011;6775;49.574;11.170;2023-04-03T13:11:19;1.97;;;1.20;;
13408;SDS011;6775;49.574;11.170;2023-04-03T13:13:55;2.90;;;1.30;;
13408;SDS011;6775;49.574;11.170;2023-04-03T13:16:26;2.33;;;1.40;;
13408;SDS011;6775;49.574;11.170;2023-04-03T13:18:54;1.80;;;1.10;;
13408;SDS011;6775;49.574;11.170;2023-04-03T13:21:23;2.67;;;1.33;;
13408;SDS011;6775;49.574;11.170;2023-04-03T13:23:54;1.87;;;1.37;;
13408;SDS011;6775;49.574;11.170;2023-04-03T13:26:37;2.27;;;1.60;;
13408;SDS011;6775;49.574;11.170;2023-04-03T13:29:05;1.53;;;1.00;;
13408;SDS011;6775;49.574;11.170;2023-04-03T13:31:55;1.67;;;1.20;;
13408;SDS011;6775;49.574;11.170;2023-04-03T13:34:24;2.40;;;1.00;;
13408;SDS011;6775;49.574;11.170;2023-04-03T13:36:55;1.90;;;1.20;;
13408;SDS011;6775;49.574;11.170;2023-04-03T13:39:25;2.00;;;1.33;;
13408;SDS011;6775;49.574;11.170;2023-04-03T13:41:54;1.07;;;0.90;;
13408;SDS011;6775;49.574;11.170;2023-04-03T13:44:26;1.70;;;1.33;;
13408;SDS011;6775;49.574;11.170;2023-04-03T13:46:59;3.83;;;1.50;;
13408;SDS011;6775;49.574;11.170;2023-04-03T13:49:29;2.13;;;1.30;;
13408;SDS011;6775;49.574;11.170;2023-04-03T13:52:00;1.50;;;1.27;;
13408;SDS011;6775;49.574;11.170;2023-04-03T13:54:34;2.73;;;1.30;;
13408;SDS011;6775;49.574;11.170;2023-04-03T13:57:10;1.40;;;1.10;;
13408;SDS011;6775;49.574;11.170;2023-04-03T13:59:40;1.70;;;0.93;;
13408;SDS011;6775;49.574;11.170;2023-04-03T14:02:17;1.17;;;1.07;;
13408;SDS011;6775;49.574;11.170;2023-04-03T14:04:49;2.50;;;1.20;;
13408;SDS011;6775;49.574;11.170;2023-04-03T14:07:22;1.73;;;1.20;;
13408;SDS011;6775;49.574;11.170;2023-04-03T14:09:51;1.90;;;1.20;;
13408;SDS011;6775;49.574;11.170;2023-04-03T14:12:21;2.13;;;1.10;;
13408;SDS011;6775;49.574;11.170;2023-04-03T14:14:57;1.27;;;0.90;;
13408;SDS011;6775;49.574;11.170;2023-04-03T14:17:28;2.53;;;1.10;;
13408;SDS011;6775;49.574;11.170;2023-04-03T14:19:57;1.53;;;1.13;;
13408;SDS011;6775;49.574;11.170;2023-04-03T14:22:28;1.57;;;0.97;;
13408;SDS011;6775;49.574;11.170;2023-04-03T14:24:58;2.93;;;1.30;;
13408;SDS011;6775;49.574;11.170;2023-04-03T14:27:27;2.03;;;0.97;;
13408;SDS011;6775;49.574;11.170;2023-04-03T14:29:58;1.77;;;1.30;;
13408;SDS011;6775;49.574;11.170;2023-04-03T14:32:26;4.30;;;1.43;;
13408;SDS011;6775;49.574;11.170;2023-04-03T14:34:55;2.47;;;1.27;;
13408;SDS011;6775;49.574;11.170;2023-04-03T14:37:24;2.43;;;1.37;;
13408;SDS011;6775;49.574;11.170;2023-04-03T14:39:55;2.07;;;1.07;;
13408;SDS011;6775;49.574;11.170;2023-04-03T14:42:25;1.97;;;1.03;;
13408;SDS011;6775;49.574;11.170;2023-04-03T14:44:55;1.83;;;1.17;;
13408;SDS011;6775;49.574;11.170;2023-04-03T14:47:24;1.30;;;1.20;;
13408;SDS011;6775;49.574;11.170;2023-04-03T14:49:59;1.40;;;1.20;;
13408;SDS011;6775;49.574;11.170;2023-04-03T14:52:28;1.10;;;1.00;;
13408;SDS011;6775;49.574;11.170;2023-04-03T14:54:58;1.90;;;1.40;;
13408;SDS011;6775;49.574;11.170;2023-04-03T14:57:27;0.97;;;0.87;;
13408;SDS011;6775;49.574;11.170;2023-04-03T14:59:57;2.00;;;1.47;;
13408;SDS011;6775;49.574;11.170;2023-04-03T15:02:26;2.43;;;1.30;;
13408;SDS011;6775;49.574;11.170;2023-04-03T15:04:56;2.00;;;1.13;;
13408;SDS011;6775;49.574;11.170;2023-04-03T15:07:26;2.00;;;1.10;;
13408;SDS011;6775;49.574;11.170;2023-04-03T15:09:56;1.13;;;0.97;;
13408;SDS011;6775;49.574;11.170;2023-04-03T15:12:25;1.80;;;1.20;;
13408;SDS011;6775;49.574;11.170;2023-04-03T15:14:52;2.13;;;1.40;;
13408;SDS011;6775;49.574;11.170;2023-04-03T15:17:28;2.83;;;1.60;;
13408;SDS011;6775;49.574;11.170;2023-04-03T15:19:56;1.80;;;1.27;;
13408;SDS011;6775;49.574;11.170;2023-04-03T15:22:27;1.30;;;1.20;;
13408;SDS011;6775;49.574;11.170;2023-04-03T15:24:54;1.60;;;1.10;;